Time;durP1;ratioP1;P1;durP2;ratioP2;P2;SDS_P1;SDS_P2;PMS_P1;PMS_P2;Temp;Humidity;BMP_temperature;BMP_pressure;BME280_temperature;BME280_humidity;BME280_pressure;Samples;Min_cycle;Max_cycle;Signal;HPM_P1;HPM_P2
2021/12/13 00:03:58;;;;;;;;;;;;;;;;;;;;;
2021/12/13 00:19:38;;;;;;;20.85;10.80;;;;;;;;;;4243710;33;20083;-74
2021/12/13 00:25:33;;;;;;;23.40;9.73;;;;;;;;;;4236101;33;20044;-74
2021/12/13 00:31:12;;;;;;;15.35;7.25;;;;;;;;;;4258416;33;20064;-74
2021/12/13 00:34:02;;;;;;;26.52;8.15;;;;;;;;;;4272608;33;20119;-74
2021/12/13 00:36:52;;;;;;;14.00;6.75;;;;;;;;;;4306001;33;20031;-74
2021/12/13 00:43:04;;;;;;;16.12;6.30;;;;;;;;;;4285319;33;20033;-75
2021/12/13 00:48:35;;;;;;;12.10;4.90;;;;;;;;;;4350104;32;20129;-75
2021/12/13 00:54:21;;;;;;;12.45;4.90;;;;;;;;;;4314848;33;20075;-74
2021/12/13 01:00:49;;;;;;;16.45;4.57;;;;;;;;;;4300766;33;20467;-74
2021/12/13 01:31:25;;;;;;;12.52;5.20;;;;;;;;;;4290375;33;20131;-75
2021/12/13 01:34:22;;;;;;;12.15;5.60;;;;;;;;;;4314298;33;20188;-75
2021/12/13 01:37:54;;;;;;;13.15;5.95;;;;;;;;;;4285033;33;20091;-75
2021/12/13 01:40:17;;;;;;;10.20;6.28;;;;;;;;;;4282722;33;20102;-75
2021/12/13 01:49:03;;;;;;;9.38;6.00;;;;;;;;;;4279814;33;20137;-75
2021/12/13 01:58:08;;;;;;;16.05;6.32;;;;;;;;;;4254275;33;20101;-75
2021/12/13 02:01:21;;;;;;;;;;;;;;;;;;;;;
2021/12/13 02:05:10;;;;;;;17.45;8.50;;;;;;;;;;4348410;33;20047;-76
2021/12/13 02:17:24;;;;;;;;;;;;;;;;;;;;;
2021/12/13 02:22:58;;;;;;;24.15;13.27;;;;;;;;;;4241006;33;20120;-75
2021/12/13 02:25:30;;;;;;;;;;;;;;;;;;4273834;33;20488;-75
2021/12/13 02:31:37;;;;;;;22.02;14.65;;;;;;;;;;4288149;33;20072;-75
2021/12/13 02:34:05;;;;;;;24.42;16.10;;;;;;;;;;4287413;33;20448;-75
2021/12/13 02:36:58;;;;;;;25.02;16.37;;;;;;;;;;4341342;33;20053;-75
2021/12/13 02:42:51;;;;;;;28.62;17.15;;;;;;;;;;4347919;33;20118;-74
2021/12/13 02:50:58;;;;;;;25.77;16.65;;;;;;;;;;4342383;32;20319;-75
2021/12/13 02:53:48;;;;;;;25.30;17.52;;;;;;;;;;4350238;33;20097;-74
2021/12/13 02:56:34;;;;;;;;;;;;;;;;;;;;;
2021/12/13 02:59:16;;;;;;;22.20;16.23;;;;;;;;;;4361907;33;20047;-74
2021/12/13 03:11:27;;;;;;;24.45;16.35;;;;;;;;;;4313228;33;20040;-75
2021/12/13 03:20:36;;;;;;;24.95;14.20;;;;;;;;;;4287849;33;20059;-75
2021/12/13 03:32:52;;;;;;;21.00;14.38;;;;;;;;;;4287009;33;20080;-75
2021/12/13 03:42:02;;;;;;;24.10;13.57;;;;;;;;;;4287080;33;20424;-75
2021/12/13 03:45:06;;;;;;;21.35;13.85;;;;;;;;;;4286785;33;20041;-75
2021/12/13 03:53:54;;;;;;;20.98;12.82;;;;;;;;;;4353108;32;20069;-75
2021/12/13 03:59:41;;;;;;;17.80;12.63;;;;;;;;;;4345114;33;20087;-75
2021/12/13 04:05:03;;;;;;;15.27;11.50;;;;;;;;;;4376888;32;20361;-75
2021/12/13 04:07:33;;;;;;;18.10;11.82;;;;;;;;;;4376313;32;20065;-75
2021/12/13 04:10:19;;;;;;;19.02;13.32;;;;;;;;;;4371087;32;20103;-75
2021/12/13 04:12:49;;;;;;;18.20;13.13;;;;;;;;;;4371079;32;20031;-76
2021/12/13 04:15:38;;;;;;;19.02;11.52;;;;;;;;;;4374940;32;20123;-75
2021/12/13 04:18:15;;;;;;;15.80;12.90;;;;;;;;;;4376283;32;20170;-75
2021/12/13 04:21:13;;;;;;;18.52;12.52;;;;;;;;;;4375389;32;20078;-76
2021/12/13 04:23:39;;;;;;;17.55;12.25;;;;;;;;;;4376676;32;20031;-74
2021/12/13 04:29:25;;;;;;;;;;;;;;;;;;;;;
2021/12/13 04:35:25;;;;;;;18.60;12.13;;;;;;;;;;4320777;33;20040;-75
2021/12/13 04:38:16;;;;;;;17.27;10.80;;;;;;;;;;4330044;33;20082;-75
2021/12/13 04:49:27;;;;;;;17.98;10.73;;;;;;;;;;4278480;33;20091;-75
2021/12/13 04:55:18;;;;;;;19.00;11.98;;;;;;;;;;4342584;33;20058;-75
2021/12/13 04:57:22;;;;;;;18.87;10.52;;;;;;;;;;4338789;33;20067;-75
2021/12/13 05:03:23;;;;;;;;;;;;;;;;;;;;;
2021/12/13 05:09:40;;;;;;;15.80;9.38;;;;;;;;;;4285866;33;20147;-75
2021/12/13 05:12:15;;;;;;;;;;;;;;;;;;;;;
2021/12/13 05:14:47;;;;;;;16.58;9.77;;;;;;;;;;4285091;33;20387;-75
2021/12/13 05:17:32;;;;;;;14.55;10.13;;;;;;;;;;4285809;33;20104;-74
2021/12/13 05:20:22;;;;;;;15.18;10.70;;;;;;;;;;4285615;33;20096;-73
2021/12/13 05:26:39;;;;;;;;;;;;;;;;;;;;;
2021/12/13 05:32:45;;;;;;;16.83;10.25;;;;;;;;;;4201513;34;20027;-74
2021/12/13 05:35:15;;;;;;;19.48;10.35;;;;;;;;;;4176689;34;20040;-74
2021/12/13 05:38:16;;;;;;;16.87;9.88;;;;;;;;;;4248656;33;20064;-74
2021/12/13 05:43:34;;;;;;;15.00;9.18;;;;;;;;;;4277921;33;20086;-74
2021/12/13 05:47:27;;;;;;;;;;;;;;;;;;;;;
2021/12/13 05:49:28;;;;;;;18.50;9.95;;;;;;;;;;4301241;33;20072;-74
2021/12/13 05:52:19;;;;;;;15.38;10.48;;;;;;;;;;4373634;32;20427;-74
2021/12/13 05:55:13;;;;;;;18.42;10.70;;;;;;;;;;4370645;32;20416;-74
2021/12/13 05:58:42;;;;;;;15.65;9.90;;;;;;;;;;4315705;33;20108;-74
2021/12/13 06:01:15;;;;;;;;;;;;;;;;;;;;;
2021/12/13 06:07:18;;;;;;;14.57;10.35;;;;;;;;;;4360692;33;20466;-75
2021/12/13 06:12:46;;;;;;;15.20;9.93;;;;;;;;;;4360305;33;20070;-75
2021/12/13 06:18:35;;;;;;;13.48;9.32;;;;;;;;;;4365096;32;19955;-74
2021/12/13 06:30:51;;;;;;;20.12;10.80;;;;;;;;;;4308478;33;20070;-74
2021/12/13 06:33:44;;;;;;;16.45;11.15;;;;;;;;;;4312794;33;20040;-74
2021/12/13 06:39:28;;;;;;;16.20;11.20;;;;;;;;;;4314392;33;20062;-74
2021/12/13 06:41:58;;;;;;;15.30;10.57;;;;;;;;;;4361789;32;20069;-74
2021/12/13 06:44:52;;;;;;;21.52;12.15;;;;;;;;;;4375361;32;20070;-74
2021/12/13 06:47:58;;;;;;;19.92;12.35;;;;;;;;;;4378081;32;20055;-74
2021/12/13 06:50:36;;;;;;;;;;;;;;;;;;;;;
2021/12/13 06:53:33;;;;;;;;;;;;;;;;;;;;;
2021/12/13 07:05:36;;;;;;;23.62;14.55;;;;;;;;;;4345755;33;20020;-74
2021/12/13 07:08:20;;;;;;;26.35;16.73;;;;;;;;;;4392563;32;20045;-74
2021/12/13 07:10:57;;;;;;;21.12;14.57;;;;;;;;;;4378767;32;20022;-74
2021/12/13 07:13:26;;;;;;;23.58;16.02;;;;;;;;;;4379197;32;20057;-74
2021/12/13 07:15:56;;;;;;;29.48;17.37;;;;;;;;;;4376206;32;20051;-74
2021/12/13 07:19:11;;;;;;;30.30;19.52;;;;;;;;;;4362822;32;20028;-75
2021/12/13 07:31:28;;;;;;;26.50;19.60;;;;;;;;;;4315325;33;20075;-75
2021/12/13 07:40:50;;;;;;;30.98;20.60;;;;;;;;;;4315923;33;20362;-74
2021/12/13 07:44:01;;;;;;;;;;;;;;;;;;;;;
2021/12/13 07:49:46;;;;;;;;;;;;;;;;;;;;;
2021/12/13 07:55:19;;;;;;;33.10;21.33;;;;;;;;;;4257689;33;20189;-75
2021/12/13 08:00:45;;;;;;;31.20;21.95;;;;;;;;;;4320530;33;20090;-75
2021/12/13 08:03:28;;;;;;;35.33;23.38;;;;;;;;;;4330067;33;20040;-75
2021/12/13 08:09:37;;;;;;;40.83;25.10;;;;;;;;;;4319674;33;20551;-74
2021/12/13 08:12:22;;;;;;;40.70;26.77;;;;;;;;;;4330125;33;20162;-75
2021/12/13 08:15:19;;;;;;;40.10;25.40;;;;;;;;;;4329575;33;20179;-74
2021/12/13 08:21:20;;;;;;;47.15;27.55;;;;;;;;;;4305546;33;20066;-75
2021/12/13 08:24:02;;;;;;;;;;;;;;;;;;;;;
2021/12/13 08:26:35;;;;;;;48.45;28.67;;;;;;;;;;4339718;32;20396;-75
2021/12/13 08:29:11;;;;;;;45.35;28.52;;;;;;;;;;4363380;32;20031;-74
2021/12/13 08:31:39;;;;;;;46.88;27.80;;;;;;;;;;4376539;32;20030;-76
2021/12/13 08:34:23;;;;;;;45.88;28.58;;;;;;;;;;4375868;32;20062;-75
2021/12/13 08:37:28;;;;;;;46.65;28.27;;;;;;;;;;4375716;32;20039;-75
2021/12/13 08:43:15;;;;;;;46.83;27.58;;;;;;;;;;4376042;32;20073;-75
2021/12/13 08:45:48;;;;;;;43.30;26.02;;;;;;;;;;4375583;32;20036;-74
2021/12/13 08:48:20;;;;;;;38.42;26.12;;;;;;;;;;4375613;32;20105;-74
2021/12/13 08:54:18;;;;;;;;;;;;;;;;;;;;;
2021/12/13 08:56:52;;;;;;;44.58;25.77;;;;;;;;;;4375582;32;20472;-74
2021/12/13 08:59:29;;;;;;;39.15;23.67;;;;;;;;;;4375799;32;20054;-74
2021/12/13 09:05:30;;;;;;;37.45;23.90;;;;;;;;;;4375224;32;20057;-75
2021/12/13 09:11:24;;;;;;;31.65;21.48;;;;;;;;;;4343095;32;20050;-74
2021/12/13 09:26:56;;;;;;;;;;;;;;;;;;;;;
2021/12/13 09:33:23;;;;;;;38.38;23.55;;;;;;;;;;4232375;33;20050;-75
2021/12/13 09:46:43;;;;;;;;;;;;;;;;;;;;;
2021/12/13 09:52:28;;;;;;;28.90;20.10;;;;;;;;;;4200208;34;20069;-75
2021/12/13 09:58:09;;;;;;;;;;;;;;;;;;;;;
2021/12/13 10:01:25;;;;;;;;;;;;;;;;;;;;;
2021/12/13 10:07:23;;;;;;;31.98;20.25;;;;;;;;;;4250966;33;20113;-75
2021/12/13 10:13:27;;;;;;;31.83;19.12;;;;;;;;;;4270755;33;20044;-75
2021/12/13 10:16:32;;;;;;;31.95;20.00;;;;;;;;;;4297741;33;20035;-75
2021/12/13 10:22:31;;;;;;;30.37;19.40;;;;;;;;;;4311626;33;20488;-75
2021/12/13 10:25:18;;;;;;;32.40;19.85;;;;;;;;;;4302784;33;20403;-74
2021/12/13 10:27:47;;;;;;;31.10;18.50;;;;;;;;;;4301934;33;20044;-74
2021/12/13 10:30:31;;;;;;;30.10;19.33;;;;;;;;;;4339876;33;20036;-74
2021/12/13 10:33:00;;;;;;;29.83;19.10;;;;;;;;;;4363088;32;20035;-75
2021/12/13 10:36:02;;;;;;;31.33;18.67;;;;;;;;;;4350170;33;20456;-74
2021/12/13 10:38:30;;;;;;;29.20;17.77;;;;;;;;;;4361992;32;20147;-73
2021/12/13 10:41:09;;;;;;;29.85;17.67;;;;;;;;;;4362093;32;20094;-74
2021/12/13 10:44:13;;;;;;;27.87;17.25;;;;;;;;;;4360218;32;20126;-74
2021/12/13 10:49:28;;;;;;;28.92;17.73;;;;;;;;;;4350804;32;20086;-74
2021/12/13 10:52:16;;;;;;;26.85;16.80;;;;;;;;;;4355649;32;20036;-74
2021/12/13 10:55:04;;;;;;;29.15;17.52;;;;;;;;;;4352554;32;20031;-74
2021/12/13 10:57:39;;;;;;;24.80;15.43;;;;;;;;;;4356798;32;20093;-74
2021/12/13 11:00:28;;;;;;;28.92;18.00;;;;;;;;;;4371052;32;20077;-74
2021/12/13 11:02:56;;;;;;;25.55;17.08;;;;;;;;;;4376312;32;20654;-74
2021/12/13 11:05:22;;;;;;;31.25;18.83;;;;;;;;;;4374985;32;20062;-74
2021/12/13 11:08:08;;;;;;;;;;;;;;;;;;;;;
2021/12/13 11:10:52;;;;;;;28.83;18.12;;;;;;;;;;4376651;32;19957;-74
2021/12/13 11:13:18;;;;;;;25.40;17.77;;;;;;;;;;4377282;32;20076;-74
2021/12/13 11:16:14;;;;;;;26.30;17.00;;;;;;;;;;4366508;32;20038;-75
2021/12/13 11:19:00;;;;;;;24.70;17.12;;;;;;;;;;4368571;32;20412;-75
2021/12/13 11:21:31;;;;;;;26.33;15.98;;;;;;;;;;4376754;32;20062;-75
2021/12/13 11:23:59;;;;;;;23.52;15.85;;;;;;;;;;4376933;32;20023;-74
2021/12/13 11:26:43;;;;;;;28.80;17.08;;;;;;;;;;4375983;32;20069;-74
2021/12/13 11:29:20;;;;;;;22.50;15.65;;;;;;;;;;4367742;32;20035;-75
2021/12/13 11:32:24;;;;;;;33.40;18.87;;;;;;;;;;4366760;32;20031;-74
2021/12/13 11:35:26;;;;;;;25.98;16.75;;;;;;;;;;4317844;33;20048;-75
2021/12/13 11:38:41;;;;;;;;;;;;;;;;;;;;;
2021/12/13 11:41:21;;;;;;;25.42;15.93;;;;;;;;;;4369636;32;20100;-75
2021/12/13 11:44:13;;;;;;;23.05;15.55;;;;;;;;;;4384189;32;20459;-75
2021/12/13 11:46:56;;;;;;;24.17;16.33;;;;;;;;;;4378360;32;20030;-74
2021/12/13 11:49:43;;;;;;;22.62;16.17;;;;;;;;;;4388620;32;20043;-74
2021/12/13 11:55:35;;;;;;;22.73;14.80;;;;;;;;;;4347521;32;20114;-74
2021/12/13 11:58:04;;;;;;;22.60;15.00;;;;;;;;;;4388766;32;20034;-75
2021/12/13 12:00:51;;;;;;;24.67;15.88;;;;;;;;;;4390241;32;20084;-74
2021/12/13 12:04:09;;;;;;;;;;;;;;;;;;;;;
2021/12/13 12:06:53;;;;;;;24.42;15.38;;;;;;;;;;4329744;33;20219;-75
2021/12/13 12:09:46;;;;;;;26.37;16.08;;;;;;;;;;4360873;32;20039;-73
2021/12/13 12:12:30;;;;;;;25.92;15.80;;;;;;;;;;4372144;32;20073;-75
2021/12/13 12:15:37;;;;;;;29.50;15.70;;;;;;;;;;4362123;32;20047;-74
2021/12/13 12:18:25;;;;;;;20.20;14.50;;;;;;;;;;4355055;32;20334;-74
2021/12/13 12:21:23;;;;;;;26.00;15.20;;;;;;;;;;4366727;32;20409;-75
2021/12/13 12:23:51;;;;;;;24.98;14.65;;;;;;;;;;4375287;32;20081;-76
2021/12/13 12:26:17;;;;;;;22.62;14.45;;;;;;;;;;4372448;32;20049;-74
2021/12/13 12:31:35;;;;;;;22.15;13.45;;;;;;;;;;4360412;32;20336;-74
2021/12/13 12:37:31;;;;;;;28.15;15.50;;;;;;;;;;4358207;32;20093;-76
2021/12/13 12:40:18;;;;;;;22.62;14.32;;;;;;;;;;4375294;32;20046;-74
2021/12/13 12:42:45;;;;;;;22.40;15.05;;;;;;;;;;4375083;32;20459;-74
2021/12/13 12:45:49;;;;;;;27.30;14.98;;;;;;;;;;4375884;32;20440;-74
2021/12/13 12:48:19;;;;;;;25.70;16.23;;;;;;;;;;4376100;32;20105;-74
2021/12/13 12:50:54;;;;;;;22.42;13.95;;;;;;;;;;4375146;32;20430;-75
2021/12/13 12:59:22;;;;;;;23.20;13.65;;;;;;;;;;4375086;32;20053;-74
2021/12/13 13:01:58;;;;;;;20.35;12.82;;;;;;;;;;4375431;32;20034;-74
2021/12/13 13:04:28;;;;;;;24.27;13.73;;;;;;;;;;4361633;32;20069;-74
2021/12/13 13:16:05;;;;;;;20.98;13.68;;;;;;;;;;4367029;32;20070;-74
2021/12/13 13:18:30;;;;;;;;;;;;;;;;;;4375567;32;20081;-73
2021/12/13 13:20:58;;;;;;;22.35;13.23;;;;;;;;;;4375174;32;19953;-74
2021/12/13 13:23:47;;;;;;;28.08;14.05;;;;;;;;;;4375613;32;20123;-74
2021/12/13 13:27:06;;;;;;;22.42;13.52;;;;;;;;;;4360776;32;20053;-74
2021/12/13 13:29:19;;;;;;;27.02;14.07;;;;;;;;;;4354649;32;20111;-74
2021/12/13 13:31:58;;;;;;;23.75;14.65;;;;;;;;;;4369444;32;20108;-75
2021/12/13 13:35:26;;;;;;;26.37;14.18;;;;;;;;;;4374510;32;20023;-76
2021/12/13 13:37:43;;;;;;;27.85;14.35;;;;;;;;;;4355628;33;20031;-74
2021/12/13 13:40:30;;;;;;;25.40;13.77;;;;;;;;;;4360443;32;20027;-74
2021/12/13 13:43:37;;;;;;;26.30;14.80;;;;;;;;;;4360259;32;20063;-74
2021/12/13 13:55:34;;;;;;;23.45;13.95;;;;;;;;;;4334779;33;20062;-75
2021/12/13 14:04:25;;;;;;;26.17;14.13;;;;;;;;;;4286479;33;20052;-75
2021/12/13 14:09:52;;;;;;;23.45;13.55;;;;;;;;;;4352869;32;20059;-74
2021/12/13 14:12:55;;;;;;;22.85;14.93;;;;;;;;;;4372552;32;20115;-74
2021/12/13 14:15:24;;;;;;;26.60;13.70;;;;;;;;;;4373296;32;20043;-75
2021/12/13 14:17:59;;;;;;;23.30;14.68;;;;;;;;;;4374795;32;20057;-74
2021/12/13 14:21:12;;;;;;;23.38;14.18;;;;;;;;;;4361061;32;20084;-74
2021/12/13 14:23:41;;;;;;;26.98;14.82;;;;;;;;;;4362282;32;20030;-74
2021/12/13 14:26:36;;;;;;;25.40;16.00;;;;;;;;;;4371658;32;20049;-75
2021/12/13 14:32:22;;;;;;;24.85;13.13;;;;;;;;;;4311537;33;20070;-74
2021/12/13 14:34:48;;;;;;;26.70;13.98;;;;;;;;;;4331146;33;20032;-74
2021/12/13 14:37:16;;;;;;;;;;;;;;;;;;4364873;32;20093;-74
2021/12/13 14:39:48;;;;;;;24.12;15.30;;;;;;;;;;4361158;32;19996;-74
2021/12/13 14:42:30;;;;;;;23.85;15.10;;;;;;;;;;4374551;32;20038;-74
2021/12/13 14:45:07;;;;;;;27.80;16.80;;;;;;;;;;4374699;32;20038;-74
2021/12/13 14:47:37;;;;;;;27.55;16.40;;;;;;;;;;4374572;32;20443;-74
2021/12/13 14:50:27;;;;;;;24.37;14.82;;;;;;;;;;4369332;32;20077;-74
2021/12/13 14:53:02;;;;;;;29.08;16.62;;;;;;;;;;4372247;32;20454;-74
2021/12/13 14:55:45;;;;;;;;;;;;;;;;;;;;;
2021/12/13 14:58:19;;;;;;;31.80;15.32;;;;;;;;;;4373663;32;20055;-73
2021/12/13 15:00:46;;;;;;;30.65;15.50;;;;;;;;;;4370889;32;20134;-73
2021/12/13 15:03:41;;;;;;;25.45;15.93;;;;;;;;;;4373381;32;20031;-74
2021/12/13 15:07:18;;;;;;;25.75;14.40;;;;;;;;;;4365856;32;20069;-74
2021/12/13 15:16:40;;;;;;;21.08;13.55;;;;;;;;;;4377259;32;20053;-73
2021/12/13 15:19:24;;;;;;;29.10;15.98;;;;;;;;;;4321361;32;20069;-74
2021/12/13 15:21:40;;;;;;;;;;;;;;;;;;;;;
2021/12/13 15:24:06;;;;;;;25.70;15.23;;;;;;;;;;4372607;32;20451;-74
2021/12/13 15:26:31;;;;;;;;;;;;;;;;;;4377479;32;20031;-73
2021/12/13 15:29:03;;;;;;;26.87;15.13;;;;;;;;;;4362598;32;19934;-73
2021/12/13 15:31:41;;;;;;;24.60;14.30;;;;;;;;;;4376870;32;20145;-73
2021/12/13 15:37:39;;;;;;;19.80;13.93;;;;;;;;;;4315790;33;20083;-74
2021/12/13 15:40:34;;;;;;;23.73;14.63;;;;;;;;;;4315708;33;20041;-74
2021/12/13 15:43:09;;;;;;;21.90;13.60;;;;;;;;;;4362593;32;20031;-74
2021/12/13 15:51:31;;;;;;;32.20;18.10;;;;;;;;;;4363388;32;20089;-73
2021/12/13 15:54:08;;;;;;;25.20;14.70;;;;;;;;;;4375934;32;20035;-73
2021/12/13 15:56:39;;;;;;;19.65;13.35;;;;;;;;;;4372475;32;20049;-73
2021/12/13 15:59:25;;;;;;;21.17;14.45;;;;;;;;;;4366677;32;20044;-73
2021/12/13 16:01:52;;;;;;;22.23;13.93;;;;;;;;;;4339769;32;20050;-74
2021/12/13 16:04:32;;;;;;;21.98;14.48;;;;;;;;;;4361237;32;20039;-73
2021/12/13 16:07:16;;;;;;;;;;;;;;;;;;;;;
2021/12/13 16:09:48;;;;;;;31.00;13.43;;;;;;;;;;4360387;32;20110;-73
2021/12/13 16:12:15;;;;;;;20.67;14.52;;;;;;;;;;4361043;32;20047;-74
2021/12/13 16:14:42;;;;;;;20.10;13.32;;;;;;;;;;4360624;33;20052;-73
2021/12/13 16:17:40;;;;;;;18.48;12.85;;;;;;;;;;4348109;32;20414;-73
2021/12/13 16:26:45;;;;;;;23.92;13.98;;;;;;;;;;4300274;33;20063;-74
2021/12/13 16:29:14;;;;;;;26.75;14.68;;;;;;;;;;4299752;33;20079;-74
2021/12/13 16:31:43;;;;;;;25.83;13.00;;;;;;;;;;4300187;33;20040;-74
2021/12/13 16:34:11;;;;;;;20.65;13.45;;;;;;;;;;4328758;33;20408;-74
2021/12/13 16:36:46;;;;;;;26.42;14.55;;;;;;;;;;4351152;33;20062;-74
2021/12/13 16:39:16;;;;;;;21.27;15.45;;;;;;;;;;4346826;33;20020;-74
2021/12/13 16:41:58;;;;;;;17.73;12.63;;;;;;;;;;4360511;32;20062;-74
2021/12/13 16:44:41;;;;;;;18.20;12.35;;;;;;;;;;4360353;32;20039;-73
2021/12/13 16:47:08;;;;;;;31.25;14.57;;;;;;;;;;4360364;33;20039;-74
2021/12/13 16:52:49;;;;;;;18.05;11.57;;;;;;;;;;4358076;33;20107;-73
2021/12/13 16:55:41;;;;;;;28.67;12.98;;;;;;;;;;4360767;33;20027;-73
2021/12/13 17:01:51;;;;;;;18.48;12.37;;;;;;;;;;4360243;32;20097;-74
2021/12/13 17:04:28;;;;;;;18.75;12.15;;;;;;;;;;4318563;32;20057;-73
2021/12/13 17:10:45;;;;;;;;;;;;;;;;;;;;;
2021/12/13 17:13:12;;;;;;;19.60;12.35;;;;;;;;;;4375597;32;20034;-74
2021/12/13 17:16:24;;;;;;;28.27;13.15;;;;;;;;;;4373547;32;20054;-73
2021/12/13 17:19:10;;;;;;;20.10;12.37;;;;;;;;;;4375670;32;20059;-74
2021/12/13 17:21:57;;;;;;;;;;;;;;;;;;;;;
2021/12/13 17:24:22;;;;;;;;;;;;;;;;;;4375177;32;20035;-73
2021/12/13 17:27:18;;;;;;;19.70;12.63;;;;;;;;;;4375180;32;20351;-74
2021/12/13 17:33:06;;;;;;;22.37;12.68;;;;;;;;;;4299899;33;20458;-73
2021/12/13 17:35:39;;;;;;;19.37;12.25;;;;;;;;;;4285591;33;20082;-73
2021/12/13 17:38:15;;;;;;;20.83;13.30;;;;;;;;;;4346665;33;20078;-73
2021/12/13 17:40:48;;;;;;;17.00;11.20;;;;;;;;;;4360553;32;20027;-73
2021/12/13 17:43:18;;;;;;;18.33;12.37;;;;;;;;;;4358806;32;20081;-73
2021/12/13 17:46:02;;;;;;;24.35;12.73;;;;;;;;;;4366622;32;20031;-73
2021/12/13 17:48:35;;;;;;;18.12;13.38;;;;;;;;;;4374009;32;20035;-73
2021/12/13 17:51:04;;;;;;;24.75;12.50;;;;;;;;;;4363665;32;20038;-73
2021/12/13 17:53:48;;;;;;;18.83;12.75;;;;;;;;;;4374274;32;20023;-73
2021/12/13 17:56:34;;;;;;;20.40;12.25;;;;;;;;;;4374844;32;20138;-75
2021/12/13 17:59:08;;;;;;;23.30;12.05;;;;;;;;;;4375304;32;20046;-75
2021/12/13 18:01:33;;;;;;;18.17;11.88;;;;;;;;;;4374829;32;20404;-74
2021/12/13 18:04:01;;;;;;;;;;;;;;;;;;4375124;32;20090;-74
2021/12/13 18:06:35;;;;;;;22.83;12.37;;;;;;;;;;4356306;32;20226;-74
2021/12/13 18:09:19;;;;;;;19.40;12.30;;;;;;;;;;4356581;33;20082;-74
2021/12/13 18:12:05;;;;;;;20.05;12.63;;;;;;;;;;4356684;33;20062;-74
2021/12/13 18:14:41;;;;;;;22.50;12.05;;;;;;;;;;4357344;32;20069;-74
2021/12/13 18:17:36;;;;;;;21.50;11.27;;;;;;;;;;4357297;33;20062;-74
2021/12/13 18:20:15;;;;;;;16.70;11.63;;;;;;;;;;4358550;33;20031;-74
2021/12/13 18:22:40;;;;;;;22.75;12.68;;;;;;;;;;4357989;33;20432;-74
2021/12/13 18:25:05;;;;;;;;;;;;;;;;;;4358479;33;20039;-74
2021/12/13 18:27:44;;;;;;;21.23;13.77;;;;;;;;;;4349805;33;20381;-74
2021/12/13 18:30:18;;;;;;;19.23;12.30;;;;;;;;;;4335050;32;20409;-74
2021/12/13 18:32:45;;;;;;;19.17;13.48;;;;;;;;;;4373255;32;20026;-74
2021/12/13 18:35:25;;;;;;;21.33;14.63;;;;;;;;;;4374436;32;20478;-74
2021/12/13 18:37:51;;;;;;;18.58;12.75;;;;;;;;;;4374334;32;20467;-74
2021/12/13 18:40:18;;;;;;;18.95;11.12;;;;;;;;;;4374965;32;20093;-74
2021/12/13 18:42:58;;;;;;;19.50;12.43;;;;;;;;;;4377801;32;20455;-74
2021/12/13 18:45:26;;;;;;;23.87;13.57;;;;;;;;;;4377551;32;20023;-74
2021/12/13 18:48:10;;;;;;;16.95;12.65;;;;;;;;;;4377291;32;20031;-74
2021/12/13 18:50:41;;;;;;;21.35;12.90;;;;;;;;;;4376820;32;20446;-74
2021/12/13 18:53:10;;;;;;;27.73;13.77;;;;;;;;;;4378094;32;20065;-74
2021/12/13 18:55:37;;;;;;;15.15;12.00;;;;;;;;;;4377257;32;20027;-74
2021/12/13 18:58:14;;;;;;;23.17;14.27;;;;;;;;;;4377437;32;20084;-73
2021/12/13 19:00:56;;;;;;;19.37;13.30;;;;;;;;;;4367425;32;20043;-74
2021/12/13 19:03:23;;;;;;;17.58;12.80;;;;;;;;;;4362050;32;20476;-73
2021/12/13 19:06:05;;;;;;;18.58;12.70;;;;;;;;;;4360281;32;20039;-73
2021/12/13 19:08:39;;;;;;;21.70;13.68;;;;;;;;;;4360463;32;20429;-74
2021/12/13 19:11:58;;;;;;;17.92;12.15;;;;;;;;;;4373875;32;20391;-74
2021/12/13 19:14:21;;;;;;;20.67;13.80;;;;;;;;;;4358891;32;20057;-73
2021/12/13 19:17:06;;;;;;;16.75;11.85;;;;;;;;;;4362244;32;20027;-73
2021/12/13 19:19:36;;;;;;;21.20;13.27;;;;;;;;;;4359010;33;20154;-73
2021/12/13 19:22:22;;;;;;;;;;;;;;;;;;;;;
2021/12/13 19:28:16;;;;;;;;;;;;;;;;;;;;;
2021/12/13 19:31:08;;;;;;;;;;;;;;;;;;;;;
2021/12/13 19:33:56;;;;;;;20.48;12.20;;;;;;;;;;4370832;32;20355;-73
2021/12/13 19:39:51;;;;;;;22.10;13.40;;;;;;;;;;4286721;33;20353;-73
2021/12/13 19:42:20;;;;;;;18.95;13.57;;;;;;;;;;4273974;33;20040;-74
2021/12/13 19:44:53;;;;;;;20.50;13.62;;;;;;;;;;4351232;33;20089;-73
2021/12/13 19:47:34;;;;;;;20.88;13.43;;;;;;;;;;4365063;32;20125;-73
2021/12/13 19:50:04;;;;;;;21.55;13.98;;;;;;;;;;4375285;32;20411;-75
2021/12/13 19:52:33;;;;;;;18.70;14.48;;;;;;;;;;4364272;32;20035;-74
2021/12/13 19:55:17;;;;;;;23.15;15.52;;;;;;;;;;4376016;32;20388;-74
2021/12/13 19:57:47;;;;;;;20.48;14.07;;;;;;;;;;4376440;32;20043;-74
2021/12/13 20:00:45;;;;;;;23.48;14.18;;;;;;;;;;4377225;32;20051;-74
2021/12/13 20:03:10;;;;;;;;;;;;;;;;;;4365121;32;20039;-73
2021/12/13 20:05:45;;;;;;;27.85;16.62;;;;;;;;;;4376573;32;19934;-74
2021/12/13 20:08:33;;;;;;;22.00;13.48;;;;;;;;;;4376990;32;20035;-74
2021/12/13 20:11:26;;;;;;;23.23;15.93;;;;;;;;;;4376558;32;20053;-74
2021/12/13 20:14:01;;;;;;;20.40;13.70;;;;;;;;;;4375717;32;20039;-74
2021/12/13 20:16:35;;;;;;;20.12;14.40;;;;;;;;;;4376343;32;20026;-74
2021/12/13 20:19:09;;;;;;;22.90;14.05;;;;;;;;;;4376591;32;20145;-74
2021/12/13 20:21:36;;;;;;;21.92;15.30;;;;;;;;;;4374604;32;20420;-74
2021/12/13 20:24:05;;;;;;;22.08;15.98;;;;;;;;;;4376150;32;20031;-74
2021/12/13 20:26:43;;;;;;;20.52;15.02;;;;;;;;;;4374354;32;20027;-74
2021/12/13 20:29:47;;;;;;;25.50;14.98;;;;;;;;;;4376313;32;20105;-75
2021/12/13 20:32:15;;;;;;;21.37;14.85;;;;;;;;;;4344314;33;20089;-75
2021/12/13 20:35:09;;;;;;;19.05;15.07;;;;;;;;;;4344345;33;20358;-75
2021/12/13 20:37:49;;;;;;;22.85;15.38;;;;;;;;;;4355799;33;20093;-75
2021/12/13 20:40:22;;;;;;;27.17;17.20;;;;;;;;;;4368804;32;20404;-75
2021/12/13 20:42:51;;;;;;;28.90;16.37;;;;;;;;;;4375848;32;20073;-75
2021/12/13 20:45:20;;;;;;;22.65;15.82;;;;;;;;;;4376178;32;20042;-74
2021/12/13 20:47:51;;;;;;;23.75;15.30;;;;;;;;;;4375350;32;20081;-74
2021/12/13 20:50:23;;;;;;;23.52;16.37;;;;;;;;;;4376498;32;20035;-74
2021/12/13 20:52:51;;;;;;;22.90;16.10;;;;;;;;;;4375916;32;20376;-74
2021/12/13 20:55:22;;;;;;;24.17;16.00;;;;;;;;;;4376018;32;20046;-74
2021/12/13 20:57:56;;;;;;;21.08;16.52;;;;;;;;;;4366071;32;20085;-74
2021/12/13 21:00:21;;;;;;;21.42;14.63;;;;;;;;;;4375915;32;20035;-74
2021/12/13 21:02:47;;;;;;;;;;;;;;;;;;4362088;32;20049;-74
2021/12/13 21:05:25;;;;;;;26.02;17.67;;;;;;;;;;4374776;32;20366;-75
2021/12/13 21:07:52;;;;;;;19.85;16.33;;;;;;;;;;4375276;32;20141;-74
2021/12/13 21:10:23;;;;;;;21.15;15.93;;;;;;;;;;4369925;32;20098;-74
2021/12/13 21:12:51;;;;;;;29.12;17.75;;;;;;;;;;4369301;32;20096;-74
2021/12/13 21:15:29;;;;;;;23.17;15.98;;;;;;;;;;4375350;32;20061;-73
2021/12/13 21:18:05;;;;;;;22.10;15.63;;;;;;;;;;4375896;32;20057;-74
2021/12/13 21:20:42;;;;;;;25.80;16.98;;;;;;;;;;4374795;32;20026;-74
2021/12/13 21:23:14;;;;;;;22.67;16.40;;;;;;;;;;4376067;32;20471;-73
2021/12/13 21:25:42;;;;;;;20.42;15.13;;;;;;;;;;4375133;32;20113;-74
2021/12/13 21:28:20;;;;;;;22.60;16.05;;;;;;;;;;4375704;32;20034;-73
2021/12/13 21:30:55;;;;;;;20.30;15.60;;;;;;;;;;4375823;32;20085;-73
2021/12/13 21:33:23;;;;;;;20.85;16.15;;;;;;;;;;4375295;32;20086;-74
2021/12/13 21:35:55;;;;;;;24.20;15.88;;;;;;;;;;4375249;32;20031;-73
2021/12/13 21:41:15;;;;;;;23.05;15.05;;;;;;;;;;4361252;32;20053;-74
2021/12/13 21:43:46;;;;;;;22.85;16.17;;;;;;;;;;4374478;32;20516;-73
2021/12/13 21:46:17;;;;;;;21.92;16.35;;;;;;;;;;4375693;32;20053;-73
2021/12/13 21:48:45;;;;;;;19.70;15.93;;;;;;;;;;4362046;32;20034;-74
2021/12/13 21:51:21;;;;;;;21.37;16.23;;;;;;;;;;4375378;32;20027;-74
2021/12/13 21:53:48;;;;;;;25.17;16.55;;;;;;;;;;4375416;32;20458;-73
2021/12/13 21:56:36;;;;;;;24.40;16.73;;;;;;;;;;4374858;32;20031;-74
2021/12/13 21:59:05;;;;;;;22.67;14.93;;;;;;;;;;4375185;32;20088;-74
2021/12/13 22:01:35;;;;;;;22.50;15.07;;;;;;;;;;4360346;32;20043;-74
2021/12/13 22:04:01;;;;;;;22.85;15.65;;;;;;;;;;4356372;33;20043;-74
2021/12/13 22:06:26;;;;;;;;;;;;;;;;;;4360571;33;20023;-74
2021/12/13 22:08:53;;;;;;;24.10;16.35;;;;;;;;;;4346445;33;19939;-73
2021/12/13 22:11:25;;;;;;;21.00;16.23;;;;;;;;;;4359670;33;20059;-74
2021/12/13 22:13:52;;;;;;;21.12;15.93;;;;;;;;;;4344040;33;20048;-74
2021/12/13 22:16:21;;;;;;;27.13;17.45;;;;;;;;;;4359308;32;20463;-73
2021/12/13 22:18:48;;;;;;;21.15;16.40;;;;;;;;;;4363232;32;20063;-74
2021/12/13 22:21:16;;;;;;;22.25;16.95;;;;;;;;;;4363506;32;20023;-73
2021/12/13 22:23:47;;;;;;;23.15;17.67;;;;;;;;;;4361135;32;20383;-73
2021/12/13 22:26:13;;;;;;;25.50;18.20;;;;;;;;;;4363066;32;20043;-74
2021/12/13 22:28:38;;;;;;;;;;;;;;;;;;4363087;32;20085;-73
2021/12/13 22:31:06;;;;;;;27.70;19.67;;;;;;;;;;4349181;33;19968;-73
2021/12/13 22:33:31;;;;;;;31.37;19.50;;;;;;;;;;4368561;32;20061;-73
2021/12/13 22:35:56;;;;;;;;;;;;;;;;;;4378417;32;20031;-72
2021/12/13 22:38:23;;;;;;;28.90;21.08;;;;;;;;;;4362119;32;20313;-73
2021/12/13 22:40:52;;;;;;;31.35;21.75;;;;;;;;;;4363072;32;20491;-73